Time;durP1;ratioP1;P1;durP2;ratioP2;P2;SDS_P1;SDS_P2;PMS_P1;PMS_P2;Temp;Humidity;BMP_temperature;BMP_pressure;BME280_temperature;BME280_humidity;BME280_pressure;Samples;Min_cycle;Max_cycle;Signal;HPM_P1;HPM_P2
2022/07/20 00:01:57;;;;;;;9.20;5.30;;;;;;;29.90;26.14;96675.41;4959909;28;20896;-31
2022/07/20 00:04:22;;;;;;;9.05;5.03;;;;;;;29.88;26.28;96669.41;4963548;28;20033;-31
2022/07/20 00:06:48;;;;;;;10.48;5.75;;;;;;;29.86;26.31;96664.22;4958885;28;20045;-27
2022/07/20 00:11:57;;;;;;;8.60;5.38;;;;;;;29.86;26.38;96673.94;4964974;28;20060;-28
2022/07/20 00:14:23;;;;;;;8.77;5.20;;;;;;;29.84;26.08;96671.44;4959091;28;20626;-29
2022/07/20 00:16:48;;;;;;;11.35;5.30;;;;;;;29.82;26.22;96672.47;4963091;28;20386;-31
2022/07/20 00:19:14;;;;;;;9.82;5.57;;;;;;;29.82;26.42;96675.13;4970494;28;20053;-30
2022/07/20 00:21:40;;;;;;;8.93;5.05;;;;;;;29.83;26.11;96674.19;4968658;28;20249;-31
2022/07/20 00:24:06;;;;;;;7.22;5.50;;;;;;;29.81;26.04;96670.78;4965759;28;20029;-25
2022/07/20 00:26:31;;;;;;;12.70;5.63;;;;;;;29.80;26.04;96671.75;4967329;28;20029;-32
2022/07/20 00:28:57;;;;;;;10.73;4.95;;;;;;;29.77;26.06;96661.41;4970583;28;20332;-29
2022/07/20 00:31:22;;;;;;;7.03;5.10;;;;;;;29.77;26.22;96669.31;4963317;28;20076;-27
2022/07/20 00:33:48;;;;;;;11.18;5.28;;;;;;;29.75;26.13;96668.59;4964478;28;20136;-28
2022/07/20 00:36:17;;;;;;;12.48;6.22;;;;;;;29.75;26.16;96671.25;4962623;28;20117;-34
2022/07/20 00:38:42;;;;;;;12.45;5.82;;;;;;;29.73;26.01;96664.28;4967988;28;20026;-31
2022/07/20 00:41:08;;;;;;;11.32;5.65;;;;;;;29.72;26.30;96669.66;4963094;28;20468;-27
2022/07/20 00:43:53;;;;;;;13.07;5.57;;;;;;;29.69;26.36;96673.38;4962547;28;20741;-27
2022/07/20 00:46:19;;;;;;;9.73;5.10;;;;;;;29.68;26.32;96665.56;4965277;28;20054;-26
2022/07/20 00:48:44;;;;;;;10.38;5.60;;;;;;;29.67;26.22;96659.41;4968083;28;20320;-27
2022/07/20 00:51:10;;;;;;;8.40;5.45;;;;;;;29.65;26.16;96663.97;4971249;28;20033;-29
2022/07/20 00:53:35;;;;;;;9.40;5.22;;;;;;;29.65;26.13;96663.97;4953550;28;20034;-26
2022/07/20 00:56:01;;;;;;;11.02;5.35;;;;;;;29.63;26.19;96663.22;4976441;28;20034;-28
2022/07/20 00:58:26;;;;;;;9.60;5.70;;;;;;;29.62;26.24;96658.91;4952112;28;20046;-31
2022/07/20 01:00:52;;;;;;;11.82;5.97;;;;;;;29.61;26.09;96662.50;4968949;28;20026;-28
2022/07/20 01:03:17;;;;;;;9.07;5.57;;;;;;;29.61;26.09;96665.16;4966561;28;20037;-31
2022/07/20 01:05:42;;;;;;;10.30;5.53;;;;;;;29.57;26.14;96664.53;4963894;28;20025;-31
2022/07/20 01:08:08;;;;;;;9.85;5.32;;;;;;;29.58;26.27;96665.34;4965786;28;20037;-32
2022/07/20 01:10:33;;;;;;;6.80;5.18;;;;;;;29.55;26.38;96668.22;4967524;28;20037;-27
2022/07/20 01:12:59;;;;;;;7.70;5.20;;;;;;;29.56;26.22;96664.63;4979378;28;20293;-29
2022/07/20 01:15:24;;;;;;;10.48;5.57;;;;;;;29.53;26.14;96664.84;4976977;28;20820;-31
2022/07/20 01:17:49;;;;;;;7.95;5.20;;;;;;;29.53;26.52;96668.34;4971602;28;20038;-28
2022/07/20 01:20:16;;;;;;;12.07;5.25;;;;;;;29.51;26.34;96664.06;4973536;28;20023;-33
2022/07/20 01:22:43;;;;;;;8.10;5.57;;;;;;;29.50;26.23;96657.09;4971521;28;20037;-31
2022/07/20 01:25:08;;;;;;;9.63;5.85;;;;;;;29.48;26.63;96657.22;4975291;28;20451;-26
2022/07/20 01:27:34;;;;;;;8.73;6.28;;;;;;;29.46;26.53;96659.97;4969682;28;20268;-27
2022/07/20 01:29:59;;;;;;;11.18;5.93;;;;;;;29.46;26.39;96657.34;4969888;28;20048;-31
2022/07/20 01:32:25;;;;;;;12.15;5.97;;;;;;;29.46;26.63;96657.34;4973060;28;20079;-27
2022/07/20 01:34:50;;;;;;;10.55;5.60;;;;;;;29.44;26.71;96659.22;4960798;28;20041;-31
2022/07/20 01:37:15;;;;;;;11.25;5.60;;;;;;;29.43;26.48;96660.19;4953000;28;21097;-28
2022/07/20 01:39:41;;;;;;;11.52;5.63;;;;;;;29.44;26.46;96655.72;4958910;28;20037;-30
2022/07/20 01:42:06;;;;;;;9.90;5.60;;;;;;;29.43;26.71;96652.28;4959568;28;20495;-27
2022/07/20 01:44:32;;;;;;;9.85;5.88;;;;;;;29.40;26.58;96652.47;4950328;28;20708;-32
2022/07/20 01:46:57;;;;;;;10.18;6.13;;;;;;;29.38;26.73;96654.41;4955468;28;20503;-27
2022/07/20 01:49:23;;;;;;;13.98;5.88;;;;;;;29.34;26.45;96653.75;4950983;28;20073;-29
2022/07/20 01:51:48;;;;;;;10.68;5.80;;;;;;;29.34;26.66;96652.91;4954052;28;20048;-28
2022/07/20 01:54:13;;;;;;;7.78;5.20;;;;;;;29.32;26.80;96650.38;4954798;28;20058;-29
2022/07/20 01:56:40;;;;;;;8.45;5.53;;;;;;;29.26;26.62;96648.19;4953382;28;20088;-33
2022/07/20 01:59:06;;;;;;;9.20;5.65;;;;;;;29.26;26.80;96660.53;4960079;28;21088;-30
2022/07/20 02:01:31;;;;;;;8.43;5.75;;;;;;;29.30;26.67;96654.91;4953844;28;20060;-30
2022/07/20 02:03:56;;;;;;;8.20;5.50;;;;;;;29.29;26.46;96665.59;4951371;28;20041;-28
2022/07/20 02:06:22;;;;;;;9.55;5.45;;;;;;;29.28;26.78;96663.88;4957680;28;20026;-31
2022/07/20 02:08:47;;;;;;;11.38;5.65;;;;;;;29.27;26.93;96664.84;4958440;28;20756;-31
2022/07/20 02:11:13;;;;;;;9.70;5.55;;;;;;;29.26;26.74;96666.66;4953503;28;20030;-29
2022/07/20 02:13:38;;;;;;;9.85;5.40;;;;;;;29.24;26.60;96665.91;4957806;28;20299;-25
2022/07/20 02:16:16;;;;;;;10.40;5.85;;;;;;;29.25;26.91;96656.22;4961386;28;20165;-36
2022/07/20 02:19:01;;;;;;;10.90;5.68;;;;;;;29.23;26.86;96655.44;4946755;28;20041;-33
2022/07/20 02:21:29;;;;;;;11.25;5.80;;;;;;;29.22;26.63;96665.19;4952132;28;20038;-28
2022/07/20 02:23:54;;;;;;;8.60;5.53;;;;;;;29.19;26.78;96666.25;4956523;28;20208;-31
2022/07/20 02:26:20;;;;;;;13.07;5.65;;;;;;;29.20;26.70;96665.28;4956128;28;20037;-29
2022/07/20 02:28:45;;;;;;;11.38;5.80;;;;;;;29.20;26.94;96673.19;4957093;28;20618;-31
2022/07/20 02:31:10;;;;;;;10.82;5.50;;;;;;;29.18;26.63;96664.53;4967757;28;20104;-30
2022/07/20 02:33:36;;;;;;;11.15;5.78;;;;;;;29.18;26.90;96664.53;4955492;28;20034;-25
2022/07/20 02:36:01;;;;;;;9.13;5.22;;;;;;;29.13;26.81;96660.53;4955306;28;20936;-27
2022/07/20 02:38:27;;;;;;;17.35;5.82;;;;;;;29.16;26.88;96663.81;4957973;28;20163;-29
2022/07/20 02:40:52;;;;;;;10.68;6.20;;;;;;;29.16;26.88;96660.31;4956217;28;21202;-27
2022/07/20 02:43:18;;;;;;;11.07;5.43;;;;;;;29.14;27.06;96663.06;4957405;28;20030;-29
2022/07/20 02:45:43;;;;;;;8.95;5.82;;;;;;;29.13;26.90;96669.28;4954494;28;20814;-27
2022/07/20 02:48:08;;;;;;;8.25;5.25;;;;;;;29.13;26.96;96666.66;4952528;28;20030;-30
2022/07/20 02:50:37;;;;;;;9.70;5.60;;;;;;;29.10;27.16;96666.84;4961017;28;20428;-32
2022/07/20 02:53:03;;;;;;;10.10;5.47;;;;;;;29.09;27.08;96665.16;4961968;28;20052;-31
2022/07/20 02:55:29;;;;;;;11.13;5.60;;;;;;;29.07;27.03;96662.63;4964714;28;20022;-33
2022/07/20 02:57:54;;;;;;;11.23;6.10;;;;;;;29.07;27.30;96670.56;4956897;28;20044;-29
2022/07/20 03:00:20;;;;;;;8.75;5.82;;;;;;;29.05;27.31;96663.69;4956700;28;20143;-26
2022/07/20 03:02:46;;;;;;;9.23;5.93;;;;;;;29.03;27.22;96663.78;4956529;28;21636;-29
2022/07/20 03:05:11;;;;;;;11.10;6.50;;;;;;;29.02;27.20;96663.94;4956529;28;20030;-27
2022/07/20 03:07:37;;;;;;;11.50;5.95;;;;;;;29.02;27.28;96661.28;4955987;28;20033;-27
2022/07/20 03:10:03;;;;;;;13.43;5.63;;;;;;;29.00;27.31;96663.16;4954195;28;20060;-26
2022/07/20 03:12:28;;;;;;;7.07;5.72;;;;;;;28.98;27.43;96657.16;4952812;28;20175;-28
2022/07/20 03:14:53;;;;;;;13.02;6.10;;;;;;;28.97;27.55;96655.47;4963932;28;20038;-29
2022/07/20 03:17:19;;;;;;;12.38;6.05;;;;;;;28.96;27.54;96649.34;4962059;28;20568;-32
2022/07/20 03:19:45;;;;;;;10.25;5.85;;;;;;;28.95;27.34;96658.22;4960504;28;20021;-31
2022/07/20 03:22:10;;;;;;;8.48;5.57;;;;;;;28.94;27.25;96667.06;4970548;28;20128;-27
2022/07/20 03:24:37;;;;;;;10.73;5.28;;;;;;;28.93;27.39;96660.97;4969374;28;20025;-31
2022/07/20 03:27:03;;;;;;;10.75;5.88;;;;;;;28.92;27.50;96667.16;4975924;28;20112;-29
2022/07/20 03:29:28;;;;;;;9.90;5.38;;;;;;;28.88;27.34;96651.63;4977581;28;20697;-26
2022/07/20 03:31:54;;;;;;;11.32;5.75;;;;;;;28.91;27.46;96656.75;4961754;28;20033;-26
2022/07/20 03:34:19;;;;;;;10.10;6.03;;;;;;;28.90;27.57;96662.94;4954967;28;20085;-27
2022/07/20 03:36:44;;;;;;;9.23;5.82;;;;;;;28.90;27.44;96671.72;4955908;28;20030;-30
2022/07/20 03:39:10;;;;;;;14.50;5.90;;;;;;;28.87;27.44;96669.25;4958844;28;20538;-31
2022/07/20 03:41:35;;;;;;;10.57;5.70;;;;;;;28.87;27.57;96671.06;4955060;28;20026;-29
2022/07/20 03:44:01;;;;;;;8.93;5.50;;;;;;;28.85;27.55;96662.38;4952986;28;20109;-29
2022/07/20 03:46:26;;;;;;;11.68;5.68;;;;;;;28.85;27.62;96665.03;4958390;28;20029;-29
2022/07/20 03:48:51;;;;;;;10.98;5.93;;;;;;;28.83;27.68;96659.84;4956415;28;23287;-29
2022/07/20 03:51:17;;;;;;;8.07;5.63;;;;;;;28.82;27.76;96659.03;4957807;28;20041;-31
2022/07/20 03:53:42;;;;;;;12.10;5.80;;;;;;;28.82;27.61;96664.28;4958109;28;20048;-32
2022/07/20 03:56:07;;;;;;;9.82;6.05;;;;;;;28.81;27.68;96656.50;4966173;28;20030;-31
2022/07/20 03:58:33;;;;;;;7.70;5.47;;;;;;;28.80;27.87;96662.72;4959543;28;20034;-29
2022/07/20 04:00:58;;;;;;;9.25;5.35;;;;;;;28.77;27.67;96653.22;4967584;28;20108;-29
2022/07/20 04:03:24;;;;;;;8.60;5.53;;;;;;;28.76;27.64;96656.78;4961290;28;20026;-26
2022/07/20 04:05:49;;;;;;;9.02;5.43;;;;;;;28.75;27.71;96665.66;4960060;28;20040;-30
2022/07/20 04:08:14;;;;;;;9.10;5.30;;;;;;;28.75;27.83;96670.09;4957569;28;21381;-30
2022/07/20 04:10:40;;;;;;;11.20;5.40;;;;;;;28.73;27.96;96670.19;4957724;28;20520;-30
2022/07/20 04:13:05;;;;;;;12.88;5.47;;;;;;;28.71;27.77;96671.25;4960449;28;20033;-32
2022/07/20 04:15:31;;;;;;;8.88;5.40;;;;;;;28.69;27.79;96671.34;4959381;28;20026;-30
2022/07/20 04:17:56;;;;;;;12.68;6.05;;;;;;;28.68;27.86;96667.84;4957224;28;20048;-29
2022/07/20 04:20:22;;;;;;;8.90;6.20;;;;;;;28.67;27.69;96655.63;4959782;28;20030;-31
2022/07/20 04:22:47;;;;;;;7.05;5.70;;;;;;;28.66;27.77;96664.50;4958899;28;20030;-30
2022/07/20 04:25:13;;;;;;;11.48;5.88;;;;;;;28.66;27.84;96669.78;4956883;28;20034;-31
2022/07/20 04:27:38;;;;;;;14.23;5.82;;;;;;;28.65;28.19;96668.06;4959807;28;21201;-28
2022/07/20 04:30:04;;;;;;;11.48;6.25;;;;;;;28.62;27.92;96663.00;4958752;28;20030;-26
2022/07/20 04:32:30;;;;;;;9.50;5.82;;;;;;;28.61;27.99;96666.59;4954727;28;20034;-29
2022/07/20 04:34:55;;;;;;;11.93;6.20;;;;;;;28.62;27.97;96660.38;4956477;28;20041;-29
2022/07/20 04:37:21;;;;;;;12.52;5.82;;;;;;;28.60;28.29;96664.06;4955964;28;20581;-29
2022/07/20 04:39:46;;;;;;;9.60;5.97;;;;;;;28.58;28.21;96661.53;4960071;28;20033;-27
2022/07/20 04:42:12;;;;;;;12.02;5.90;;;;;;;28.56;28.39;96658.97;4959636;28;20048;-33
2022/07/20 04:44:37;;;;;;;14.90;6.05;;;;;;;28.58;28.42;96672.06;4955279;28;20099;-31
2022/07/20 04:47:03;;;;;;;13.55;6.40;;;;;;;28.55;28.46;96661.72;4956217;28;20026;-27
2022/07/20 04:49:28;;;;;;;8.95;6.30;;;;;;;28.56;28.43;96673.94;4960538;28;20999;-28
2022/07/20 04:51:54;;;;;;;9.30;6.07;;;;;;;28.57;28.41;96673.03;4949817;28;20022;-27
2022/07/20 04:54:21;;;;;;;12.88;6.20;;;;;;;28.58;28.30;96671.22;4961845;28;20041;-26
2022/07/20 04:56:47;;;;;;;13.13;6.22;;;;;;;28.58;28.53;96666.78;4963271;28;20885;-26
2022/07/20 04:59:12;;;;;;;13.13;6.38;;;;;;;28.56;28.67;96658.13;4957250;28;20048;-30
2022/07/20 05:01:38;;;;;;;15.35;6.35;;;;;;;28.57;28.71;96657.22;4944530;28;20096;-28
2022/07/20 05:04:03;;;;;;;10.20;6.40;;;;;;;28.58;28.64;96661.53;4956623;28;20120;-25
2022/07/20 05:06:29;;;;;;;11.18;5.85;;;;;;;28.58;28.60;96656.25;4958995;28;20037;-26
2022/07/20 05:08:54;;;;;;;15.68;6.22;;;;;;;28.59;28.71;96660.56;4956107;28;22521;-30
2022/07/20 05:11:19;;;;;;;12.32;6.10;;;;;;;28.60;28.69;96656.16;4950364;28;20041;-29
2022/07/20 05:13:45;;;;;;;17.30;6.78;;;;;;;28.61;28.78;96660.47;4956661;28;20041;-27
2022/07/20 05:16:10;;;;;;;10.70;5.95;;;;;;;28.61;28.86;96663.97;4951923;28;20061;-28
2022/07/20 05:18:36;;;;;;;11.98;6.22;;;;;;;28.62;28.80;96660.38;4959634;28;20579;-31
2022/07/20 05:21:02;;;;;;;9.15;5.80;;;;;;;28.64;28.83;96661.09;4949632;28;20025;-31
2022/07/20 05:23:27;;;;;;;10.18;5.97;;;;;;;28.64;28.67;96666.38;4956640;28;20037;-25
2022/07/20 05:25:53;;;;;;;10.27;6.00;;;;;;;28.67;28.89;96671.44;4951176;28;20061;-28
2022/07/20 05:28:20;;;;;;;13.48;5.97;;;;;;;28.69;28.84;96672.19;4957263;28;20441;-26
2022/07/20 05:30:48;;;;;;;13.15;6.28;;;;;;;28.69;28.86;96668.72;4962256;28;20040;-33
2022/07/20 05:33:14;;;;;;;13.70;6.18;;;;;;;28.71;28.94;96669.44;4953668;28;20034;-25
2022/07/20 05:35:39;;;;;;;10.45;5.78;;;;;;;28.67;29.27;96660.03;4953456;28;20061;-27
2022/07/20 05:38:04;;;;;;;11.50;5.68;;;;;;;28.74;28.91;96666.59;4956567;28;20028;-26
2022/07/20 05:40:30;;;;;;;15.00;6.28;;;;;;;28.77;29.14;96670.81;4958053;28;20417;-27
2022/07/20 05:42:55;;;;;;;11.40;6.18;;;;;;;28.78;29.22;96672.50;4952927;28;20042;-27
2022/07/20 05:45:21;;;;;;;16.10;6.18;;;;;;;28.79;29.30;96674.19;4951452;28;21969;-30
2022/07/20 05:47:46;;;;;;;12.63;6.15;;;;;;;28.78;29.06;96672.50;4953745;28;20120;-30
2022/07/20 05:50:11;;;;;;;20.73;6.38;;;;;;;28.83;29.17;96681.81;4951402;28;20033;-27
2022/07/20 05:52:37;;;;;;;19.83;6.40;;;;;;;28.85;29.22;96676.44;4949640;28;20030;-30
2022/07/20 05:55:03;;;;;;;20.13;7.20;;;;;;;28.88;29.25;96684.16;4956313;28;20038;-26
2022/07/20 05:57:28;;;;;;;18.70;6.80;;;;;;;28.89;29.16;96679.69;4962939;28;20088;-29
2022/07/20 05:59:54;;;;;;;22.60;7.15;;;;;;;28.89;29.30;96675.31;4954779;28;20033;-25
2022/07/20 06:02:19;;;;;;;24.17;7.03;;;;;;;28.92;29.29;96680.34;4955741;28;21072;-28
2022/07/20 06:04:44;;;;;;;22.08;6.28;;;;;;;28.95;29.43;96685.44;4954816;28;20037;-26
2022/07/20 06:07:10;;;;;;;20.17;6.72;;;;;;;28.97;29.33;96687.09;4955688;28;22136;-25
2022/07/20 06:09:36;;;;;;;17.50;5.90;;;;;;;28.99;29.32;96690.50;4964619;28;20145;-29
2022/07/20 06:12:01;;;;;;;29.40;6.93;;;;;;;29.02;29.47;96698.22;4964573;28;20022;-27
2022/07/20 06:14:27;;;;;;;30.50;7.00;;;;;;;29.03;29.41;96697.25;4959733;28;20030;-26
2022/07/20 06:16:52;;;;;;;26.75;7.32;;;;;;;29.06;29.49;96694.44;4959275;28;20033;-29
2022/07/20 06:19:17;;;;;;;41.60;7.57;;;;;;;29.07;29.51;96694.28;4957562;28;20030;-27
2022/07/20 06:21:43;;;;;;;28.75;7.45;;;;;;;29.09;29.35;96694.19;4959445;28;20132;-30
2022/07/20 06:24:08;;;;;;;31.60;7.25;;;;;;;29.10;29.27;96708.25;4955512;28;20078;-30
2022/07/20 06:26:34;;;;;;;27.30;7.20;;;;;;;29.12;29.28;96707.19;4965389;28;20029;-30
2022/07/20 06:28:59;;;;;;;26.67;7.43;;;;;;;29.13;29.68;96711.50;4954485;28;20029;-25
2022/07/20 06:31:25;;;;;;;26.42;7.15;;;;;;;29.15;29.24;96712.25;4960175;28;20042;-29
2022/07/20 06:33:50;;;;;;;18.98;6.50;;;;;;;29.16;29.29;96703.38;4955257;28;20056;-28
2022/07/20 06:36:16;;;;;;;17.58;6.25;;;;;;;29.18;29.27;96698.84;4965527;28;20128;-29
2022/07/20 06:38:42;;;;;;;14.93;6.50;;;;;;;29.19;29.05;96705.81;4962382;28;20030;-26
2022/07/20 06:41:07;;;;;;;14.38;6.25;;;;;;;29.22;28.86;96699.50;4951622;28;20148;-29
2022/07/20 06:43:33;;;;;;;13.00;6.53;;;;;;;29.23;28.64;96700.31;4950949;28;22403;-25
2022/07/20 06:45:58;;;;;;;12.55;6.13;;;;;;;29.25;28.87;96706.34;4948818;28;20030;-26
2022/07/20 06:48:23;;;;;;;17.58;7.15;;;;;;;29.27;28.74;96709.72;4948355;28;20022;-27
2022/07/20 06:50:49;;;;;;;13.85;5.93;;;;;;;29.28;28.56;96703.47;4949978;28;20411;-29
2022/07/20 06:53:14;;;;;;;17.52;6.53;;;;;;;29.29;28.68;96706.00;4952037;28;20033;-31
2022/07/20 06:55:40;;;;;;;14.35;6.18;;;;;;;29.32;28.63;96712.88;4957392;28;20037;-28
2022/07/20 06:58:05;;;;;;;17.98;6.85;;;;;;;29.33;28.60;96714.59;4955422;28;20838;-26
2022/07/20 07:00:31;;;;;;;22.60;6.53;;;;;;;29.34;28.49;96716.25;4955507;28;20048;-27
2022/07/20 07:02:56;;;;;;;19.55;6.50;;;;;;;29.35;28.39;96712.66;4948465;28;20133;-28
2022/07/20 07:05:21;;;;;;;17.33;6.75;;;;;;;29.36;28.67;96714.34;4952350;28;20815;-26
2022/07/20 07:07:47;;;;;;;27.40;6.88;;;;;;;29.38;28.45;96711.59;4953781;28;20038;-26
2022/07/20 07:10:12;;;;;;;18.80;5.80;;;;;;;29.39;28.63;96708.88;4956378;28;20849;-26
2022/07/20 07:12:38;;;;;;;17.50;6.70;;;;;;;29.40;28.57;96699.16;4953491;28;20025;-27
2022/07/20 07:15:03;;;;;;;14.10;5.50;;;;;;;29.43;28.45;96707.72;4953599;28;20042;-30
2022/07/20 07:17:30;;;;;;;16.55;6.38;;;;;;;29.41;28.77;96696.41;4953783;28;20030;-26
2022/07/20 07:19:59;;;;;;;17.65;6.28;;;;;;;29.48;28.56;96702.94;4952609;28;20033;-29
2022/07/20 07:22:27;;;;;;;19.00;6.07;;;;;;;29.51;28.37;96708.94;4962763;28;20137;-31
2022/07/20 07:24:53;;;;;;;16.15;6.45;;;;;;;29.54;28.45;96716.69;4954086;28;20042;-26
2022/07/20 07:27:19;;;;;;;12.35;5.85;;;;;;;29.56;28.52;96714.81;4954393;28;20044;-28
2022/07/20 07:29:44;;;;;;;17.05;6.32;;;;;;;29.59;28.48;96709.28;4954152;28;20037;-31
2022/07/20 07:32:10;;;;;;;22.98;6.55;;;;;;;29.63;28.41;96707.28;4956019;28;20034;-32
2022/07/20 07:34:35;;;;;;;14.23;5.72;;;;;;;29.65;28.48;96708.88;4958625;28;20533;-25
2022/07/20 07:37:00;;;;;;;10.30;5.70;;;;;;;29.68;28.67;96703.34;4958636;28;20149;-27
2022/07/20 07:39:26;;;;;;;10.00;5.85;;;;;;;29.71;28.36;96700.50;4954255;28;20037;-30
2022/07/20 07:41:51;;;;;;;9.20;5.53;;;;;;;29.75;28.28;96692.38;4959026;28;21036;-30
2022/07/20 07:44:17;;;;;;;11.70;5.47;;;;;;;29.76;28.15;96700.19;4960672;28;20042;-26
2022/07/20 07:46:42;;;;;;;13.48;5.82;;;;;;;29.79;28.13;96699.94;4956683;28;20030;-31
2022/07/20 07:49:07;;;;;;;10.10;5.47;;;;;;;29.82;28.21;96693.59;4953117;28;20093;-32
2022/07/20 07:51:33;;;;;;;12.65;5.78;;;;;;;29.84;28.09;96697.00;4957173;28;20762;-33
2022/07/20 07:53:58;;;;;;;10.80;5.65;;;;;;;29.86;28.19;96700.34;4957410;28;20045;-30
2022/07/20 07:56:24;;;;;;;12.18;6.15;;;;;;;29.85;28.31;96690.75;4958351;28;20745;-28
2022/07/20 07:58:49;;;;;;;9.32;6.10;;;;;;;29.92;28.34;96699.94;4956020;28;20696;-30
2022/07/20 08:01:14;;;;;;;14.13;5.85;;;;;;;29.94;28.00;96697.19;4959706;28;20041;-28
2022/07/20 08:03:40;;;;;;;8.60;5.18;;;;;;;29.95;28.25;96697.06;4957867;28;20606;-32
2022/07/20 08:06:05;;;;;;;11.57;5.72;;;;;;;29.98;28.10;96704.75;4954682;28;20030;-31
2022/07/20 08:08:31;;;;;;;9.38;5.55;;;;;;;30.02;28.12;96699.25;4956892;28;20041;-26
2022/07/20 08:10:56;;;;;;;8.75;5.13;;;;;;;30.02;28.45;96700.13;4952598;28;20030;-29
2022/07/20 08:13:22;;;;;;;8.68;5.53;;;;;;;30.05;28.38;96693.78;4957514;28;20768;-31
2022/07/20 08:15:47;;;;;;;10.05;5.68;;;;;;;30.04;28.58;96695.56;4955731;28;20037;-28
2022/07/20 08:18:13;;;;;;;14.50;5.68;;;;;;;30.10;28.60;96702.19;4953706;28;20115;-26
2022/07/20 08:20:38;;;;;;;12.02;5.63;;;;;;;30.12;28.26;96700.31;4957269;28;20659;-29
2022/07/20 08:23:04;;;;;;;12.40;5.47;;;;;;;30.13;28.33;96702.00;4967030;28;20032;-29
2022/07/20 08:25:29;;;;;;;10.68;5.40;;;;;;;30.13;28.12;96704.63;4961085;28;20045;-31
2022/07/20 08:27:55;;;;;;;9.38;5.65;;;;;;;30.14;28.13;96706.34;4948338;28;20033;-32
2022/07/20 08:30:20;;;;;;;12.55;5.63;;;;;;;30.14;28.32;96706.34;4956877;28;20214;-32
2022/07/20 08:32:46;;;;;;;16.10;5.35;;;;;;;30.14;28.18;96711.63;4959115;28;20132;-29
2022/07/20 08:35:11;;;;;;;8.73;5.40;;;;;;;30.13;28.36;96707.28;4950693;28;20034;-27
2022/07/20 08:37:38;;;;;;;9.18;5.38;;;;;;;30.13;28.15;96702.00;4934230;28;20034;-31
2022/07/20 08:40:05;;;;;;;9.85;5.18;;;;;;;30.12;28.40;96702.94;4935990;28;20062;-29
2022/07/20 08:42:30;;;;;;;10.27;4.82;;;;;;;30.13;28.49;96702.00;4968251;28;20033;-30
2022/07/20 08:44:56;;;;;;;14.95;5.18;;;;;;;30.13;28.43;96702.00;4952089;28;20029;-27
2022/07/20 08:47:21;;;;;;;13.63;5.32;;;;;;;30.12;28.46;96706.44;4956627;28;20327;-26
2022/07/20 08:49:50;;;;;;;10.13;5.05;;;;;;;30.14;28.52;96709.00;4951203;28;20124;-28
2022/07/20 08:52:16;;;;;;;15.77;4.85;;;;;;;30.13;28.46;96707.28;4959958;28;20523;-29
2022/07/20 08:54:41;;;;;;;9.90;4.85;;;;;;;30.14;28.47;96709.00;4960515;28;20044;-31
2022/07/20 08:57:10;;;;;;;8.68;4.60;;;;;;;30.14;28.35;96714.28;4955154;28;20743;-27
2022/07/20 08:59:36;;;;;;;9.45;4.90;;;;;;;30.15;28.40;96715.94;4954195;28;21046;-26
2022/07/20 09:02:03;;;;;;;7.03;4.65;;;;;;;30.14;28.54;96714.28;4948055;28;20144;-29
2022/07/20 09:04:29;;;;;;;7.70;4.60;;;;;;;30.15;28.40;96715.09;4957021;28;20026;-29
2022/07/20 09:06:54;;;;;;;11.00;4.90;;;;;;;30.15;28.55;96715.94;4950245;28;20046;-25
2022/07/20 09:09:20;;;;;;;9.27;4.95;;;;;;;30.16;28.45;96716.81;4950880;28;20042;-29
2022/07/20 09:11:45;;;;;;;10.25;4.25;;;;;;;30.14;28.41;96714.28;4949808;28;20045;-31
2022/07/20 09:14:11;;;;;;;7.05;4.45;;;;;;;30.16;28.38;96715.00;4952188;28;20057;-34
2022/07/20 09:16:46;;;;;;;6.75;4.47;;;;;;;30.16;28.50;96717.63;4962053;28;20042;-30
2022/07/20 09:19:14;;;;;;;8.98;4.10;;;;;;;30.14;28.59;96709.00;4953135;28;20034;-25
2022/07/20 09:21:39;;;;;;;8.18;4.40;;;;;;;30.16;28.72;96711.53;4960633;28;20113;-30
2022/07/20 09:24:06;;;;;;;7.38;4.40;;;;;;;30.16;28.35;96709.72;4956841;28;20049;-28
2022/07/20 09:26:31;;;;;;;7.45;4.97;;;;;;;30.17;28.39;96714.03;4955412;28;20229;-26
2022/07/20 09:28:57;;;;;;;8.13;4.40;;;;;;;30.16;28.73;96712.34;4962547;28;21044;-26
2022/07/20 09:31:37;;;;;;;5.90;4.20;;;;;;;30.17;28.51;96714.03;4958613;28;20037;-29
2022/07/20 09:34:15;;;;;;;8.05;4.70;;;;;;;30.16;28.45;96707.06;4964106;28;20069;-29
2022/07/20 09:36:45;;;;;;;8.85;4.45;;;;;;;30.16;28.51;96712.34;4963694;28;20044;-28
2022/07/20 09:39:10;;;;;;;8.43;4.68;;;;;;;30.17;28.71;96708.75;4968489;28;20120;-32
2022/07/20 09:41:36;;;;;;;10.13;4.50;;;;;;;30.17;28.47;96703.47;4970228;28;20034;-26
2022/07/20 09:44:02;;;;;;;10.43;4.47;;;;;;;30.17;28.73;96695.53;4964879;28;20108;-30
2022/07/20 09:46:30;;;;;;;8.32;4.47;;;;;;;30.18;28.77;96697.25;4966009;28;20030;-28
2022/07/20 09:48:57;;;;;;;7.28;4.60;;;;;;;30.18;28.73;96699.88;4965675;28;20045;-27
2022/07/20 09:51:27;;;;;;;10.35;4.22;;;;;;;30.19;28.51;96696.28;4966454;28;20029;-26
2022/07/20 09:53:54;;;;;;;6.95;4.30;;;;;;;30.19;28.50;96698.06;4965069;28;20045;-32
2022/07/20 09:56:20;;;;;;;7.00;4.40;;;;;;;30.18;28.57;96689.31;4962094;28;20037;-26
2022/07/20 09:58:47;;;;;;;10.15;4.40;;;;;;;30.21;28.80;96689.06;4967554;28;20030;-27
2022/07/20 10:01:34;;;;;;;8.25;4.28;;;;;;;30.20;28.47;96690.03;4964256;28;22049;-25
2022/07/20 10:04:01;;;;;;;6.00;4.15;;;;;;;30.22;28.77;96696.06;4958966;28;20029;-27
2022/07/20 10:06:27;;;;;;;6.53;4.10;;;;;;;30.21;28.49;96694.34;4970609;28;20029;-30
2022/07/20 10:08:53;;;;;;;9.55;4.72;;;;;;;30.22;28.78;96692.56;4967580;28;20647;-26
2022/07/20 10:11:20;;;;;;;6.80;4.13;;;;;;;30.21;28.76;96691.72;4966141;28;20033;-31
2022/07/20 10:13:48;;;;;;;6.47;4.30;;;;;;;30.22;28.54;96688.13;4967869;28;20041;-31
2022/07/20 10:16:18;;;;;;;8.00;4.50;;;;;;;30.22;28.51;96693.41;4966698;28;20029;-29
2022/07/20 10:18:45;;;;;;;6.10;4.05;;;;;;;30.22;28.96;96685.50;4960510;28;20096;-26
2022/07/20 10:21:36;;;;;;;10.05;4.60;;;;;;;30.23;28.84;96684.53;4965444;28;20047;-31
2022/07/20 10:24:34;;;;;;;7.88;4.25;;;;;;;30.25;28.46;96687.06;4966126;28;21802;-28
2022/07/20 10:27:02;;;;;;;5.55;3.72;;;;;;;30.25;28.48;96693.16;4963805;28;20046;-30
2022/07/20 10:29:27;;;;;;;5.63;3.80;;;;;;;30.24;28.58;96683.56;4967607;28;20030;-29
2022/07/20 10:32:08;;;;;;;5.85;3.92;;;;;;;30.25;28.64;96677.31;4962934;28;20030;-26
2022/07/20 10:35:03;;;;;;;7.83;4.47;;;;;;;30.26;28.53;96683.47;4965027;28;20068;-31
2022/07/20 10:37:36;;;;;;;6.15;4.10;;;;;;;30.26;28.50;96680.81;4962619;28;20533;-31
2022/07/20 10:40:14;;;;;;;6.20;3.88;;;;;;;30.27;28.83;96679.84;4955739;28;20050;-28
2022/07/20 10:42:50;;;;;;;5.47;3.80;;;;;;;30.27;28.69;96677.19;4966760;28;20061;-26
2022/07/20 10:45:27;;;;;;;5.43;3.78;;;;;;;30.28;28.64;96693.91;4962694;28;20034;-30
2022/07/20 10:48:14;;;;;;;6.18;3.85;;;;;;;30.28;28.69;96683.34;4965615;28;20063;-31
2022/07/20 10:50:52;;;;;;;4.70;3.42;;;;;;;30.29;28.56;96685.88;4963255;28;20092;-27
2022/07/20 10:53:18;;;;;;;6.20;3.85;;;;;;;30.29;28.66;96691.16;4965591;28;20057;-30
2022/07/20 10:56:00;;;;;;;4.50;3.40;;;;;;;30.29;28.54;96685.88;4967642;28;20819;-30
2022/07/20 10:58:31;;;;;;;4.75;3.70;;;;;;;30.29;28.57;96683.25;4966395;28;20104;-28
2022/07/20 11:01:12;;;;;;;6.57;4.18;;;;;;;30.31;28.71;96688.38;4961253;28;20034;-30
2022/07/20 11:03:44;;;;;;;;;;;;;;;30.32;28.57;96690.09;4962988;28;20095;-31
2022/07/20 11:06:10;;;;;;;;;;;;;;;30.34;28.51;96688.16;4963777;28;19928;-23
2022/07/20 11:08:36;;;;;;;5.10;3.72;;;;;;;30.32;28.62;96682.16;4966571;28;20040;-29
2022/07/20 11:11:02;;;;;;;5.70;3.40;;;;;;;30.34;28.75;96688.16;4967992;28;20022;-26
2022/07/20 11:13:29;;;;;;;5.30;3.72;;;;;;;30.31;28.50;96678.66;4961032;28;20164;-28
2022/07/20 11:16:01;;;;;;;5.65;3.80;;;;;;;30.33;28.59;96676.75;4962390;28;20042;-26
2022/07/20 11:18:29;;;;;;;4.20;3.50;;;;;;;30.35;28.73;96673.97;4958837;28;20029;-28
2022/07/20 11:20:56;;;;;;;5.75;3.60;;;;;;;30.35;28.79;96671.34;4959306;28;20049;-27
2022/07/20 11:23:23;;;;;;;5.93;3.28;;;;;;;30.35;28.81;96666.91;4956580;28;20041;-28
2022/07/20 11:25:56;;;;;;;4.75;3.58;;;;;;;30.37;28.53;96672.09;4966783;28;20769;-26
2022/07/20 11:28:29;;;;;;;5.07;3.60;;;;;;;30.36;28.68;96663.31;4966218;28;20061;-29
2022/07/20 11:30:55;;;;;;;4.72;3.30;;;;;;;30.37;28.73;96657.06;4956878;28;20036;-27